Round Lake, Illinois
Current Conditions -  °F | °C
As of 4:55 PM on Monday 20 Oct 2014 (Local Time) from KUGN Reporting Station
Overcast Overcast  
Wind Chill: 53°   Ceiling: 3300
Heat Index: 53°   Visibility: 10mi
Dew Point: 45°   Wind: 3mph
Humidity: 74%   Direction: 20°NNE
Pressure: 29.91"   Gusts: NA
Location:  42.35°N, 88.09°W
Report Text: KUGN 202155Z 02003KT 10SM BKN033 OVC042 12/07 A2991 RMK AO2 SLP130 T01170072
Loading
Personal Weather Stations






























Interactive Weather Map
Tropical Storm Tracking
New forecast layout! Learn more

10-Day Weather Forecast

Advertisements
Track Severe Weather on mobile